Time;durP1;ratioP1;P1;durP2;ratioP2;P2;SDS_P1;SDS_P2;PMS_P1;PMS_P2;Temp;Humidity;BMP_temperature;BMP_pressure;BME280_temperature;BME280_humidity;BME280_pressure;Samples;Min_cycle;Max_cycle;Signal;HPM_P1;HPM_P2
2023/08/03 00:01:31;;;;;;;14.75;6.30;;;15.90;99.90;;;;;;4991140;28;20061;-64
2023/08/03 00:04:00;;;;;;;7.88;3.40;;;16.00;99.90;;;;;;4991509;28;20174;-63
2023/08/03 00:06:27;;;;;;;11.25;3.75;;;15.70;99.90;;;;;;4991226;28;20057;-65
2023/08/03 00:08:53;;;;;;;12.13;4.05;;;15.70;99.90;;;;;;4989422;28;20054;-63
2023/08/03 00:11:19;;;;;;;8.10;3.55;;;15.70;99.90;;;;;;4991330;28;20038;-64
2023/08/03 00:13:44;;;;;;;11.30;3.72;;;16.10;99.90;;;;;;4980113;28;20049;-64
2023/08/03 00:16:10;;;;;;;10.60;4.18;;;15.70;99.90;;;;;;4988840;28;20118;-65
2023/08/03 00:18:35;;;;;;;14.95;4.57;;;15.80;99.90;;;;;;4989845;28;20042;-64
2023/08/03 00:21:01;;;;;;;9.60;4.18;;;15.80;99.90;;;;;;4989024;28;20042;-64
2023/08/03 00:23:27;;;;;;;12.25;3.92;;;15.80;99.90;;;;;;4990360;28;20089;-64
2023/08/03 00:25:52;;;;;;;10.32;4.60;;;15.80;99.90;;;;;;4990197;28;20121;-63
2023/08/03 00:28:21;;;;;;;8.07;4.07;;;16.00;99.90;;;;;;4990462;28;20030;-64
2023/08/03 00:30:46;;;;;;;10.73;4.15;;;15.60;99.90;;;;;;4972898;28;20045;-64
2023/08/03 00:33:12;;;;;;;11.10;4.05;;;16.20;99.90;;;;;;4990545;28;20042;-62
2023/08/03 00:35:38;;;;;;;11.02;3.95;;;15.90;99.90;;;;;;4972878;28;20038;-64
2023/08/03 00:38:03;;;;;;;9.13;4.07;;;16.20;99.90;;;;;;4990075;28;20117;-64
2023/08/03 00:40:29;;;;;;;14.15;4.85;;;15.50;99.90;;;;;;4984659;28;20034;-64
2023/08/03 00:42:55;;;;;;;8.68;3.63;;;15.60;99.90;;;;;;4983076;28;20050;-63
2023/08/03 00:45:21;;;;;;;10.75;4.20;;;15.60;99.90;;;;;;4983958;28;20045;-63
2023/08/03 00:47:46;;;;;;;9.20;3.53;;;16.00;99.90;;;;;;4991375;28;20126;-64
2023/08/03 00:50:12;;;;;;;7.15;3.85;;;16.10;99.90;;;;;;4991367;28;20440;-65
2023/08/03 00:52:38;;;;;;;9.43;3.65;;;15.80;99.90;;;;;;4991571;28;20031;-64
2023/08/03 00:55:04;;;;;;;7.95;3.70;;;;;;;;;;4976496;28;20174;-63
2023/08/03 00:57:30;;;;;;;10.75;3.97;;;15.80;99.90;;;;;;4981277;28;20045;-64
2023/08/03 00:59:56;;;;;;;7.30;3.28;;;15.70;99.90;;;;;;4982944;28;20034;-64
2023/08/03 01:02:22;;;;;;;10.45;3.78;;;16.10;99.90;;;;;;4979635;28;20440;-64
2023/08/03 01:04:48;;;;;;;7.25;3.60;;;16.00;99.90;;;;;;4974729;28;20045;-64
2023/08/03 01:07:14;;;;;;;9.20;4.03;;;15.80;99.90;;;;;;4982512;28;20039;-63
2023/08/03 01:09:40;;;;;;;9.23;3.90;;;15.90;99.90;;;;;;4982882;28;20109;-64
2023/08/03 01:12:06;;;;;;;12.48;4.43;;;15.80;99.90;;;;;;4974782;28;20049;-64
2023/08/03 01:14:32;;;;;;;8.25;3.50;;;16.10;99.90;;;;;;4984486;28;20114;-64
2023/08/03 01:16:58;;;;;;;9.45;4.13;;;15.90;99.90;;;;;;4978479;28;20054;-64
2023/08/03 01:19:23;;;;;;;11.75;3.92;;;15.80;99.90;;;;;;4992663;28;20038;-64
2023/08/03 01:21:50;;;;;;;12.52;3.95;;;15.70;99.90;;;;;;4989204;28;20125;-64
2023/08/03 01:24:16;;;;;;;8.88;3.55;;;15.80;99.90;;;;;;4978792;28;20138;-64
2023/08/03 01:26:44;;;;;;;9.90;4.13;;;16.00;99.90;;;;;;5008948;28;20535;-64
2023/08/03 01:29:10;;;;;;;8.05;3.80;;;15.80;99.90;;;;;;4992550;28;20536;-64
2023/08/03 01:31:35;;;;;;;8.15;4.38;;;15.70;99.90;;;;;;4992216;28;20045;-64
2023/08/03 01:34:01;;;;;;;9.85;3.78;;;16.00;99.90;;;;;;4984088;28;20047;-64
2023/08/03 01:36:27;;;;;;;9.10;4.10;;;15.60;99.90;;;;;;4983333;28;20069;-64
2023/08/03 01:39:06;;;;;;;6.88;3.50;;;16.10;99.90;;;;;;4977175;28;20042;-64
2023/08/03 01:41:34;;;;;;;10.23;3.90;;;15.90;99.90;;;;;;4985612;28;20054;-63
2023/08/03 01:44:22;;;;;;;7.03;3.28;;;15.80;99.90;;;;;;4983094;28;20046;-64
2023/08/03 01:46:49;;;;;;;9.55;3.47;;;15.90;99.90;;;;;;5006818;28;20042;-65
2023/08/03 01:49:15;;;;;;;10.07;3.33;;;15.80;99.90;;;;;;4988448;28;20804;-63
2023/08/03 01:51:41;;;;;;;7.82;3.80;;;16.10;99.90;;;;;;4982020;28;20045;-64
2023/08/03 01:54:08;;;;;;;8.35;3.47;;;15.70;99.90;;;;;;4980335;28;20085;-64
2023/08/03 01:56:35;;;;;;;7.53;3.90;;;;;;;;;;4982989;28;20051;-64
2023/08/03 01:59:01;;;;;;;9.98;3.90;;;16.20;99.90;;;;;;4988638;28;20046;-63
2023/08/03 02:01:29;;;;;;;8.75;3.70;;;16.10;99.90;;;;;;4986504;28;20034;-64
2023/08/03 02:03:55;;;;;;;7.10;3.50;;;15.90;99.90;;;;;;4981017;28;20078;-64
2023/08/03 02:06:20;;;;;;;6.82;3.22;;;15.90;99.90;;;;;;4992185;28;20566;-64
2023/08/03 02:08:46;;;;;;;9.20;3.53;;;15.70;99.90;;;;;;4978874;28;20042;-65
2023/08/03 02:11:12;;;;;;;7.82;3.22;;;16.20;99.90;;;;;;4989026;28;20489;-64
2023/08/03 02:13:37;;;;;;;8.82;3.17;;;16.00;99.90;;;;;;4980157;28;20048;-64
2023/08/03 02:16:08;;;;;;;9.75;3.95;;;16.10;99.90;;;;;;4980023;28;20042;-65
2023/08/03 02:18:34;;;;;;;6.97;2.75;;;16.20;99.90;;;;;;4987045;28;20036;-63
2023/08/03 02:20:59;;;;;;;8.80;2.90;;;15.90;99.90;;;;;;4977842;28;20556;-64
2023/08/03 02:23:25;;;;;;;7.65;3.42;;;16.20;99.90;;;;;;4979924;28;20121;-64
2023/08/03 02:25:51;;;;;;;9.48;3.50;;;16.10;99.90;;;;;;4978432;28;20417;-64
2023/08/03 02:28:17;;;;;;;7.65;3.88;;;15.90;99.90;;;;;;4991845;28;20050;-63
2023/08/03 02:30:42;;;;;;;7.30;3.78;;;16.10;99.90;;;;;;4985764;28;20491;-62
2023/08/03 02:33:08;;;;;;;8.07;3.85;;;16.10;99.90;;;;;;4991447;28;20038;-64
2023/08/03 02:35:37;;;;;;;7.63;3.38;;;15.90;99.90;;;;;;4992442;28;20049;-64
2023/08/03 02:38:03;;;;;;;9.30;4.22;;;15.70;99.90;;;;;;4990121;28;20527;-64
2023/08/03 02:40:29;;;;;;;7.00;3.60;;;16.00;99.90;;;;;;4982823;28;20049;-64
2023/08/03 02:42:54;;;;;;;8.90;4.35;;;15.80;99.90;;;;;;4986474;28;20415;-62
2023/08/03 02:45:20;;;;;;;9.82;4.45;;;15.50;99.90;;;;;;4986906;28;20480;-64
2023/08/03 02:47:46;;;;;;;7.78;4.45;;;15.90;99.90;;;;;;4992082;28;20407;-64
2023/08/03 02:50:12;;;;;;;9.90;4.07;;;15.90;99.90;;;;;;4992071;28;20045;-63
2023/08/03 02:52:37;;;;;;;10.32;4.25;;;15.80;99.90;;;;;;4991287;28;20397;-63
2023/08/03 02:55:03;;;;;;;9.57;4.32;;;15.50;99.90;;;;;;4991938;28;20118;-64
2023/08/03 02:57:31;;;;;;;8.68;4.55;;;15.90;99.90;;;;;;4992318;28;20191;-64
2023/08/03 02:59:57;;;;;;;11.30;4.80;;;15.90;99.90;;;;;;4992024;28;20046;-64
2023/08/03 03:02:22;;;;;;;11.15;6.20;;;16.40;99.90;;;;;;4990780;28;20141;-64
2023/08/03 03:04:49;;;;;;;12.27;6.03;;;15.60;99.90;;;;;;4992009;28;20038;-65
2023/08/03 03:07:15;;;;;;;11.43;6.43;;;15.50;99.90;;;;;;4992492;28;20056;-64
2023/08/03 03:09:41;;;;;;;11.68;5.30;;;16.20;99.90;;;;;;4991787;28;20046;-63
2023/08/03 03:12:07;;;;;;;12.48;6.72;;;15.60;99.90;;;;;;4990209;28;20038;-63
2023/08/03 03:14:35;;;;;;;11.43;6.53;;;16.20;99.90;;;;;;4976920;28;20057;-63
2023/08/03 03:17:01;;;;;;;13.40;6.38;;;16.40;99.90;;;;;;4990034;28;20050;-65
2023/08/03 03:19:27;;;;;;;14.95;6.78;;;16.20;99.90;;;;;;4991411;28;20066;-64
2023/08/03 03:21:53;;;;;;;11.35;6.43;;;16.10;99.90;;;;;;4992155;28;20085;-64
2023/08/03 03:24:18;;;;;;;10.55;6.07;;;16.10;99.90;;;;;;4989858;28;20041;-64
2023/08/03 03:26:44;;;;;;;11.90;6.60;;;16.10;99.90;;;;;;4990285;28;20042;-64
2023/08/03 03:29:10;;;;;;;12.50;6.15;;;15.80;99.90;;;;;;4990731;28;20046;-63
2023/08/03 03:31:35;;;;;;;16.60;7.32;;;15.90;99.90;;;;;;4991693;28;20038;-64
2023/08/03 03:34:01;;;;;;;13.60;6.88;;;16.30;99.90;;;;;;4991123;28;20507;-63
2023/08/03 03:36:27;;;;;;;12.75;7.13;;;15.90;99.90;;;;;;4989631;28;20042;-64
2023/08/03 03:38:53;;;;;;;12.95;7.47;;;15.80;99.90;;;;;;4991206;28;20053;-64
2023/08/03 03:41:18;;;;;;;11.85;7.28;;;16.10;99.90;;;;;;4987166;28;20125;-63
2023/08/03 03:43:44;;;;;;;12.90;7.40;;;15.40;99.90;;;;;;4983710;28;20047;-64
2023/08/03 03:46:09;;;;;;;11.20;6.85;;;16.00;99.90;;;;;;4989287;28;20085;-64
2023/08/03 03:48:35;;;;;;;14.25;7.60;;;16.00;99.90;;;;;;5005951;28;20145;-64
2023/08/03 03:51:01;;;;;;;14.23;7.32;;;15.50;99.90;;;;;;4980868;28;20038;-63
2023/08/03 03:53:27;;;;;;;12.80;6.80;;;;;;;;;;4988157;28;20031;-63
2023/08/03 03:55:52;;;;;;;16.88;6.63;;;16.30;99.90;;;;;;4987481;28;20045;-64
2023/08/03 03:58:18;;;;;;;16.65;6.85;;;15.90;99.90;;;;;;4989150;28;20445;-63
2023/08/03 04:00:44;;;;;;;12.27;6.40;;;15.80;99.90;;;;;;4989767;28;20416;-64
2023/08/03 04:03:10;;;;;;;14.80;6.00;;;15.60;99.90;;;;;;4982893;28;20225;-63
2023/08/03 04:05:37;;;;;;;15.00;5.50;;;16.40;99.90;;;;;;4990674;28;20141;-64
2023/08/03 04:08:03;;;;;;;13.45;6.07;;;15.90;99.90;;;;;;4990425;28;20049;-65
2023/08/03 04:10:29;;;;;;;11.77;5.57;;;15.90;99.90;;;;;;4990623;28;20496;-63
2023/08/03 04:12:55;;;;;;;16.00;6.40;;;15.50;99.90;;;;;;4990785;28;20030;-64
2023/08/03 04:15:21;;;;;;;15.68;6.30;;;16.10;99.90;;;;;;4990177;28;22441;-65
2023/08/03 04:17:48;;;;;;;15.98;5.90;;;15.50;99.90;;;;;;4990441;28;20077;-64
2023/08/03 04:20:15;;;;;;;14.23;6.43;;;16.30;99.90;;;;;;4990852;28;20057;-64
2023/08/03 04:22:40;;;;;;;14.77;6.45;;;15.50;99.90;;;;;;4986014;28;20397;-64
2023/08/03 04:25:07;;;;;;;17.13;6.15;;;16.00;99.90;;;;;;4990565;28;20038;-65
2023/08/03 04:27:32;;;;;;;13.02;5.45;;;15.30;99.90;;;;;;4989623;28;20038;-64
2023/08/03 04:29:58;;;;;;;17.65;6.75;;;16.20;99.90;;;;;;4990802;28;20034;-64
2023/08/03 04:32:24;;;;;;;13.73;6.38;;;15.70;99.90;;;;;;4988946;28;20034;-64
2023/08/03 04:34:49;;;;;;;18.23;7.43;;;15.30;99.90;;;;;;4989176;28;20078;-64
2023/08/03 04:37:15;;;;;;;18.60;6.90;;;15.70;99.90;;;;;;4990139;28;20050;-64
2023/08/03 04:39:41;;;;;;;14.57;6.55;;;15.40;99.90;;;;;;5005270;28;20471;-64
2023/08/03 04:42:06;;;;;;;15.05;6.82;;;15.40;99.90;;;;;;4989647;28;20500;-64
2023/08/03 04:44:32;;;;;;;12.35;5.63;;;16.10;99.90;;;;;;4989029;28;20478;-64
2023/08/03 04:46:59;;;;;;;13.75;6.22;;;15.30;99.90;;;;;;4990103;28;20101;-64
2023/08/03 04:49:28;;;;;;;15.23;6.03;;;15.90;99.90;;;;;;4989805;28;20050;-64
2023/08/03 04:51:53;;;;;;;15.93;7.43;;;16.00;99.90;;;;;;4988983;28;20074;-64
2023/08/03 04:54:20;;;;;;;18.42;6.78;;;15.70;99.90;;;;;;4989826;28;20093;-63
2023/08/03 04:56:46;;;;;;;12.88;6.10;;;15.70;99.90;;;;;;4988785;28;20092;-64
2023/08/03 04:59:12;;;;;;;16.33;6.53;;;15.60;99.90;;;;;;4989024;28;20439;-64
2023/08/03 05:01:37;;;;;;;13.25;6.38;;;15.90;99.90;;;;;;4984628;28;20034;-63
2023/08/03 05:04:03;;;;;;;16.65;7.53;;;15.80;99.90;;;;;;4990237;28;20088;-64
2023/08/03 05:06:29;;;;;;;14.20;7.07;;;15.90;99.90;;;;;;4988730;28;20126;-63
2023/08/03 05:08:55;;;;;;;13.77;7.05;;;16.10;99.90;;;;;;4989650;28;20125;-63
2023/08/03 05:11:21;;;;;;;12.93;6.72;;;15.40;99.90;;;;;;4990035;28;20113;-64
2023/08/03 05:13:49;;;;;;;14.85;7.03;;;15.20;99.90;;;;;;4990219;28;20373;-64
2023/08/03 05:16:22;;;;;;;15.43;6.63;;;15.40;99.90;;;;;;4989671;28;20129;-64
2023/08/03 05:18:48;;;;;;;14.57;6.88;;;;;;;;;;4988683;28;20121;-64
2023/08/03 05:21:13;;;;;;;18.98;7.93;;;15.90;99.90;;;;;;4988508;28;20130;-64
2023/08/03 05:23:39;;;;;;;14.60;6.70;;;15.50;99.90;;;;;;4990294;28;20354;-64
2023/08/03 05:26:05;;;;;;;14.95;7.32;;;15.50;99.90;;;;;;4988269;28;20122;-64
2023/08/03 05:28:31;;;;;;;13.20;6.95;;;15.80;99.90;;;;;;4988972;28;20408;-64
2023/08/03 05:30:57;;;;;;;15.45;7.05;;;15.70;99.90;;;;;;4990049;28;20109;-64
2023/08/03 05:33:23;;;;;;;14.25;6.70;;;15.70;99.90;;;;;;4985307;28;20462;-64
2023/08/03 05:35:48;;;;;;;13.55;5.95;;;16.30;99.90;;;;;;4990055;28;20503;-65
2023/08/03 05:38:15;;;;;;;13.18;7.05;;;16.30;99.90;;;;;;4989469;28;20039;-65
2023/08/03 05:40:41;;;;;;;9.93;5.43;;;16.10;99.90;;;;;;4990172;28;20084;-64
2023/08/03 05:43:10;;;;;;;11.98;5.13;;;15.90;99.90;;;;;;4989801;28;20450;-64
2023/08/03 05:45:42;;;;;;;13.27;5.00;;;16.20;99.90;;;;;;4981897;28;20049;-64
2023/08/03 05:48:16;;;;;;;9.00;4.53;;;16.10;99.90;;;;;;4988309;28;20120;-64
2023/08/03 05:50:46;;;;;;;8.15;3.75;;;16.10;99.90;;;;;;4982898;28;20149;-64
2023/08/03 05:53:13;;;;;;;9.55;4.40;;;16.40;99.90;;;;;;5004443;28;20034;-64
2023/08/03 05:55:40;;;;;;;13.57;4.20;;;15.80;99.90;;;;;;4989580;28;20038;-65
2023/08/03 05:58:08;;;;;;;10.32;3.75;;;16.30;99.90;;;;;;4990566;28;20117;-64
2023/08/03 06:00:34;;;;;;;9.63;3.58;;;16.20;99.90;;;;;;4992526;28;20166;-64
2023/08/03 06:03:00;;;;;;;7.55;3.05;;;16.20;99.90;;;;;;4976225;28;20537;-65
2023/08/03 06:05:38;;;;;;;9.60;3.53;;;16.20;99.90;;;;;;4992871;28;20100;-65
2023/08/03 06:08:23;;;;;;;9.10;3.53;;;16.00;99.90;;;;;;4992785;28;20038;-63
2023/08/03 06:10:53;;;;;;;;;;;16.10;99.90;;;;;;4985602;28;20125;-63
2023/08/03 06:13:25;;;;;;;9.23;3.90;;;16.30;99.90;;;;;;4984857;28;19918;-62
2023/08/03 06:15:51;;;;;;;10.90;3.58;;;16.10;99.90;;;;;;4993108;28;20134;-62
2023/08/03 06:18:18;;;;;;;11.70;4.47;;;16.40;99.90;;;;;;4992445;28;20446;-64
2023/08/03 06:20:46;;;;;;;6.40;2.70;;;16.10;99.90;;;;;;4993003;28;20039;-63
2023/08/03 06:23:27;;;;;;;10.57;3.55;;;16.10;99.90;;;;;;4992968;28;20512;-62
2023/08/03 06:25:55;;;;;;;7.57;3.08;;;16.30;99.90;;;;;;4987063;28;20515;-63
2023/08/03 06:28:23;;;;;;;7.45;2.45;;;16.50;99.90;;;;;;4983635;28;20503;-63
2023/08/03 06:30:51;;;;;;;9.55;2.90;;;16.10;99.90;;;;;;4988183;28;20049;-63
2023/08/03 06:33:23;;;;;;;5.93;2.80;;;16.40;99.90;;;;;;4991650;28;20042;-62
2023/08/03 06:35:52;;;;;;;9.40;2.90;;;16.40;99.90;;;;;;4992740;28;20041;-63
2023/08/03 06:38:21;;;;;;;10.30;3.00;;;16.70;99.90;;;;;;4984000;28;20034;-63
2023/08/03 06:40:48;;;;;;;6.80;2.63;;;16.60;99.90;;;;;;4988473;28;20054;-63
2023/08/03 06:43:14;;;;;;;8.23;2.40;;;16.50;99.90;;;;;;4989726;28;20034;-63
2023/08/03 06:45:41;;;;;;;7.93;2.97;;;16.80;99.90;;;;;;4992244;28;20034;-63
2023/08/03 06:48:08;;;;;;;7.22;2.35;;;16.70;99.90;;;;;;4990630;28;20050;-62
2023/08/03 06:50:34;;;;;;;6.82;2.60;;;16.60;99.90;;;;;;4971315;28;20046;-62
2023/08/03 06:53:02;;;;;;;8.15;2.40;;;16.90;99.90;;;;;;4992673;28;20113;-63
2023/08/03 06:55:28;;;;;;;8.75;2.65;;;16.70;99.90;;;;;;4991679;28;20456;-63
2023/08/03 06:57:53;;;;;;;5.97;2.53;;;16.60;99.90;;;;;;4992013;28;20056;-62
2023/08/03 07:00:19;;;;;;;5.72;2.50;;;16.90;99.90;;;;;;4991843;28;20483;-63
2023/08/03 07:02:46;;;;;;;8.00;2.70;;;16.80;99.90;;;;;;4990699;28;20149;-63
2023/08/03 07:05:12;;;;;;;6.75;2.40;;;17.00;99.90;;;;;;4992077;28;20048;-62
2023/08/03 07:07:37;;;;;;;6.72;2.40;;;17.10;99.90;;;;;;4991660;28;20468;-64
2023/08/03 07:10:04;;;;;;;10.10;2.90;;;17.00;99.90;;;;;;5006133;28;20042;-63
2023/08/03 07:12:29;;;;;;;7.40;2.63;;;17.20;99.90;;;;;;4991452;28;20117;-63
2023/08/03 07:14:55;;;;;;;6.65;2.80;;;17.20;99.90;;;;;;4991784;28;20121;-63
2023/08/03 07:17:24;;;;;;;8.40;2.33;;;17.70;99.90;;;;;;4991454;28;20121;-63
2023/08/03 07:19:54;;;;;;;8.75;2.55;;;17.60;99.90;;;;;;4990733;28;20519;-63
2023/08/03 07:22:20;;;;;;;9.90;2.60;;;17.40;99.90;;;;;;4991506;28;20054;-63
2023/08/03 07:24:46;;;;;;;6.60;2.42;;;17.00;99.90;;;;;;4991789;28;20042;-64
2023/08/03 07:27:11;;;;;;;9.05;3.00;;;17.20;99.90;;;;;;4991314;28;20044;-63
2023/08/03 07:29:37;;;;;;;7.60;2.33;;;17.20;99.90;;;;;;4991259;28;20391;-63
2023/08/03 07:32:03;;;;;;;8.38;2.47;;;16.90;99.90;;;;;;4991866;28;20050;-64
2023/08/03 07:34:29;;;;;;;7.65;2.40;;;17.10;99.90;;;;;;4991143;28;20097;-63
2023/08/03 07:36:56;;;;;;;10.93;2.80;;;16.90;88.00;;;;;;4991797;28;20034;-64
2023/08/03 07:39:22;;;;;;;8.23;2.45;;;17.50;79.70;;;;;;4991086;28;20690;-63
2023/08/03 07:41:48;;;;;;;10.27;2.78;;;17.00;91.20;;;;;;4991575;28;20129;-63
2023/08/03 07:44:17;;;;;;;9.55;2.75;;;17.00;91.30;;;;;;4991474;28;20131;-63
2023/08/03 07:46:43;;;;;;;11.00;2.70;;;17.00;95.30;;;;;;4991020;28;20070;-63
2023/08/03 07:49:09;;;;;;;10.98;2.88;;;17.40;16.00;;;;;;4991303;28;20113;-63
2023/08/03 07:51:35;;;;;;;11.65;3.80;;;17.60;3.80;;;;;;4989831;28;20508;-63
2023/08/03 07:54:01;;;;;;;8.65;3.10;;;17.20;1.00;;;;;;4991327;28;20484;-63
2023/08/03 07:56:26;;;;;;;11.73;2.80;;;17.40;1.00;;;;;;4990599;28;20149;-63
2023/08/03 07:58:52;;;;;;;9.25;3.00;;;17.10;1.00;;;;;;4990883;28;20082;-63
2023/08/03 08:01:20;;;;;;;11.93;2.95;;;17.40;1.00;;;;;;4991420;28;20053;-63
2023/08/03 08:03:45;;;;;;;9.38;2.90;;;17.60;1.00;;;;;;5005698;28;20273;-63
2023/08/03 08:06:21;;;;;;;10.45;2.80;;;17.30;1.00;;;;;;4990860;28;20041;-63
2023/08/03 08:08:47;;;;;;;12.65;3.40;;;17.30;1.00;;;;;;4990162;28;20041;-63
2023/08/03 08:11:15;;;;;;;9.38;2.47;;;18.20;99.90;;;;;;4991213;28;20038;-64
2023/08/03 08:13:41;;;;;;;9.65;3.05;;;18.10;99.90;;;;;;4990723;28;20074;-63
2023/08/03 08:16:09;;;;;;;8.35;2.53;;;18.20;99.90;;;;;;4991072;28;20089;-63
2023/08/03 08:18:36;;;;;;;9.48;3.03;;;18.40;99.90;;;;;;4990414;28;20048;-63
2023/08/03 08:21:07;;;;;;;11.15;3.17;;;17.50;99.90;;;;;;4990811;28;20034;-63
2023/08/03 08:23:33;;;;;;;8.68;3.15;;;17.70;99.90;;;;;;4989092;28;20069;-63
2023/08/03 08:26:00;;;;;;;9.45;3.10;;;18.10;99.90;;;;;;4990450;28;20039;-63
2023/08/03 08:28:26;;;;;;;12.38;3.17;;;18.20;99.90;;;;;;4989937;28;20054;-63
2023/08/03 08:30:52;;;;;;;8.52;2.80;;;17.60;99.90;;;;;;4991075;28;20034;-64
2023/08/03 08:33:18;;;;;;;12.32;3.08;;;18.40;99.90;;;;;;4990803;28;20498;-63
2023/08/03 08:35:46;;;;;;;10.30;2.80;;;17.90;99.90;;;;;;4990467;28;20130;-62
2023/08/03 08:38:12;;;;;;;12.43;2.67;;;18.20;99.90;;;;;;4989275;28;20404;-63
2023/08/03 08:40:39;;;;;;;8.82;3.35;;;18.40;99.90;;;;;;4990358;28;20038;-64
2023/08/03 08:43:06;;;;;;;8.30;2.95;;;18.20;99.90;;;;;;4990574;28;20122;-63
2023/08/03 08:45:32;;;;;;;12.32;3.35;;;18.70;98.10;;;;;;4988734;28;20053;-63
2023/08/03 08:47:58;;;;;;;7.40;2.90;;;18.50;36.00;;;;;;4990014;28;20506;-63
2023/08/03 08:50:24;;;;;;;6.28;2.70;;;18.70;92.60;;;;;;4986918;28;20038;-63
2023/08/03 08:52:51;;;;;;;10.18;3.20;;;18.50;99.90;;;;;;4988952;28;20030;-63
2023/08/03 08:55:20;;;;;;;12.00;3.30;;;19.00;96.20;;;;;;4989872;28;20092;-63
2023/08/03 08:57:46;;;;;;;8.98;3.38;;;18.80;99.90;;;;;;4989800;28;20420;-63
2023/08/03 09:00:12;;;;;;;10.15;2.80;;;18.40;40.90;;;;;;4988986;28;20030;-63
2023/08/03 09:02:38;;;;;;;9.98;2.83;;;19.30;18.10;;;;;;4990045;28;20034;-63
2023/08/03 09:05:15;;;;;;;9.63;2.42;;;19.00;16.50;;;;;;4990100;28;20030;-64
2023/08/03 09:07:41;;;;;;;10.18;2.42;;;19.30;1.00;;;;;;4990229;28;20034;-65
2023/08/03 09:10:08;;;;;;;5.95;1.98;;;19.10;1.00;;;;;;4990227;28;20109;-64
2023/08/03 09:12:34;;;;;;;6.18;2.17;;;19.20;1.00;;;;;;4990072;28;20050;-63
2023/08/03 09:15:00;;;;;;;8.00;2.28;;;19.70;1.00;;;;;;4990435;28;20135;-62
2023/08/03 09:17:27;;;;;;;6.78;2.55;;;19.70;1.00;;;;;;4989997;28;20109;-63
2023/08/03 09:19:54;;;;;;;10.23;2.30;;;19.40;1.00;;;;;;4988475;28;20054;-63
2023/08/03 09:22:24;;;;;;;12.48;2.00;;;19.30;1.00;;;;;;4990230;28;20038;-62
2023/08/03 09:25:19;;;;;;;5.72;1.80;;;19.40;1.00;;;;;;4989692;28;20046;-63
2023/08/03 09:27:49;;;;;;;6.07;1.52;;;19.60;99.90;;;;;;4984471;28;20120;-63
2023/08/03 09:30:15;;;;;;;5.63;1.60;;;20.00;99.90;;;;;;4990257;28;20039;-62
2023/08/03 09:32:41;;;;;;;7.57;1.75;;;19.20;99.90;;;;;;4990401;28;20042;-63
2023/08/03 09:35:21;;;;;;;5.90;1.30;;;19.40;99.90;;;;;;4985682;28;20031;-63
2023/08/03 09:37:53;;;;;;;7.20;2.28;;;19.60;1.00;;;;;;4993035;28;20050;-62
2023/08/03 09:40:20;;;;;;;8.15;2.28;;;19.30;99.90;;;;;;4992877;28;20034;-62
2023/08/03 09:42:47;;;;;;;5.78;1.48;;;19.50;99.90;;;;;;4992385;28;20321;-63
2023/08/03 09:45:13;;;;;;;4.43;1.25;;;19.20;99.90;;;;;;4993436;28;20150;-62
2023/08/03 09:47:39;;;;;;;7.38;1.98;;;19.30;99.90;;;;;;4993100;28;20508;-63
2023/08/03 09:50:06;;;;;;;6.75;1.42;;;19.60;99.90;;;;;;4993767;28;20030;-63
2023/08/03 09:52:39;;;;;;;5.72;1.67;;;19.40;99.90;;;;;;4976410;28;20064;-62
2023/08/03 09:55:12;;;;;;;9.18;1.63;;;19.50;99.90;;;;;;4988540;28;20516;-63
2023/08/03 09:57:43;;;;;;;5.57;1.65;;;19.50;99.90;;;;;;4993075;28;20030;-63
2023/08/03 10:00:12;;;;;;;4.82;1.13;;;19.80;99.90;;;;;;4993353;28;20500;-63
2023/08/03 10:02:50;;;;;;;7.15;1.60;;;19.60;99.90;;;;;;4993210;28;20093;-62
2023/08/03 10:05:20;;;;;;;4.55;1.23;;;19.20;99.90;;;;;;4993445;28;20288;-63
2023/08/03 10:08:06;;;;;;;5.35;1.35;;;19.50;99.90;;;;;;4993039;28;20128;-63
2023/08/03 10:10:46;;;;;;;5.35;1.30;;;19.40;99.90;;;;;;4993344;28;20034;-63
2023/08/03 10:13:13;;;;;;;4.93;1.48;;;19.60;99.90;;;;;;4985447;28;20038;-63
2023/08/03 10:15:40;;;;;;;4.95;1.38;;;19.70;99.90;;;;;;4993084;28;20039;-63
2023/08/03 10:18:06;;;;;;;6.68;1.27;;;19.80;99.90;;;;;;4992954;28;20046;-63
2023/08/03 10:20:35;;;;;;;5.55;1.83;;;19.90;99.90;;;;;;4992961;28;20030;-63
2023/08/03 10:23:18;;;;;;;6.55;1.83;;;20.00;99.90;;;;;;4993021;28;20042;-62
2023/08/03 10:25:56;;;;;;;6.00;1.88;;;19.80;99.90;;;;;;4992599;28;20067;-62
2023/08/03 10:28:27;;;;;;;7.22;1.58;;;19.30;99.90;;;;;;4987009;28;20476;-63
2023/08/03 10:31:17;;;;;;;6.72;1.52;;;19.60;99.90;;;;;;4993016;28;20046;-63
2023/08/03 10:33:51;;;;;;;9.23;1.90;;;19.30;99.90;;;;;;4990323;28;20042;-63
2023/08/03 10:36:26;;;;;;;6.63;1.80;;;19.30;99.90;;;;;;4992847;28;20034;-63
2023/08/03 10:39:12;;;;;;;6.47;1.45;;;19.90;1.00;;;;;;5007281;28;20054;-63
2023/08/03 10:41:46;;;;;;;9.50;2.05;;;19.80;1.00;;;;;;4983144;28;20249;-62
2023/08/03 10:44:12;;;;;;;6.85;1.55;;;20.00;99.90;;;;;;4992848;28;20041;-63
2023/08/03 10:46:39;;;;;;;4.65;1.42;;;19.80;99.90;;;;;;4992783;28;20050;-62
2023/08/03 10:49:20;;;;;;;6.65;1.52;;;19.90;1.00;;;;;;4992522;28;20467;-63
2023/08/03 10:51:45;;;;;;;6.13;1.73;;;19.90;99.90;;;;;;4992181;28;20622;-64
2023/08/03 10:54:11;;;;;;;4.85;1.70;;;20.10;99.90;;;;;;4992231;28;20067;-62
2023/08/03 10:56:37;;;;;;;7.03;1.70;;;20.10;99.90;;;;;;4992428;28;20377;-63
2023/08/03 10:59:03;;;;;;;5.95;1.73;;;20.20;99.90;;;;;;4992291;28;20042;-63
2023/08/03 11:01:29;;;;;;;6.43;1.60;;;20.20;99.90;;;;;;4992660;28;20066;-63
2023/08/03 11:03:56;;;;;;;6.78;2.03;;;20.10;99.90;;;;;;4987246;28;20113;-63
2023/08/03 11:06:22;;;;;;;9.23;2.22;;;20.10;99.90;;;;;;4991675;28;20154;-63
2023/08/03 11:08:48;;;;;;;10.90;2.85;;;20.20;99.90;;;;;;4991675;28;20427;-64
2023/08/03 11:11:21;;;;;;;9.68;2.88;;;20.20;99.90;;;;;;4992494;28;20034;-63
2023/08/03 11:13:47;;;;;;;8.57;2.53;;;20.10;99.90;;;;;;4992059;28;20049;-62
2023/08/03 11:16:20;;;;;;;12.30;3.70;;;19.80;99.90;;;;;;4989339;28;20038;-64
2023/08/03 11:18:46;;;;;;;9.50;3.85;;;19.70;99.90;;;;;;4986742;28;20046;-64
2023/08/03 11:21:12;;;;;;;6.95;2.55;;;19.90;1.00;;;;;;4992200;28;20034;-64
2023/08/03 11:23:38;;;;;;;7.45;2.00;;;19.60;1.00;;;;;;4991436;28;20117;-63
2023/08/03 11:26:06;;;;;;;10.75;2.78;;;19.90;1.00;;;;;;4991939;28;20121;-63
2023/08/03 11:28:45;;;;;;;10.38;2.55;;;20.00;1.00;;;;;;4982759;28;20397;-64
2023/08/03 11:31:17;;;;;;;10.98;3.13;;;19.30;1.00;;;;;;4986568;28;20039;-64
2023/08/03 11:33:53;;;;;;;9.20;2.85;;;19.50;1.00;;;;;;4991134;28;20045;-63
2023/08/03 11:36:23;;;;;;;12.45;2.75;;;19.10;1.00;;;;;;4990634;28;20480;-63
2023/08/03 11:38:50;;;;;;;9.25;2.47;;;19.40;1.00;;;;;;4991239;28;20045;-64
2023/08/03 11:41:24;;;;;;;8.20;2.50;;;19.50;1.00;;;;;;5006673;28;20046;-63
2023/08/03 11:43:50;;;;;;;;;;;19.90;1.00;;;;;;4991590;28;20030;-62
2023/08/03 11:46:21;;;;;;;10.43;2.28;;;19.80;1.00;;;;;;5003103;28;20422;-64
2023/08/03 11:48:46;;;;;;;7.13;2.30;;;19.90;1.00;;;;;;4980238;28;20096;-63
2023/08/03 11:51:12;;;;;;;6.10;1.98;;;19.80;1.00;;;;;;4985489;28;20034;-64
2023/08/03 11:53:40;;;;;;;9.77;2.70;;;20.10;1.00;;;;;;4989660;28;20034;-64
2023/08/03 11:56:07;;;;;;;7.55;2.53;;;19.60;99.90;;;;;;4975312;28;20511;-63
2023/08/03 11:58:34;;;;;;;9.88;2.85;;;20.20;1.00;;;;;;4976433;28;20143;-63
2023/08/03 12:01:03;;;;;;;9.45;3.17;;;19.40;1.00;;;;;;4981358;28;20050;-63
2023/08/03 12:03:33;;;;;;;9.02;2.72;;;19.50;1.00;;;;;;4981571;28;20039;-64
2023/08/03 12:06:10;;;;;;;10.40;3.00;;;18.90;1.00;;;;;;4981317;28;20496;-63
2023/08/03 12:08:43;;;;;;;11.15;4.35;;;19.30;1.00;;;;;;4977943;28;20125;-63
2023/08/03 12:11:08;;;;;;;13.38;4.07;;;19.20;1.00;;;;;;4975463;28;20039;-63
2023/08/03 12:13:35;;;;;;;12.05;4.50;;;18.60;1.00;;;;;;4979087;28;20053;-63
2023/08/03 12:16:01;;;;;;;12.50;4.68;;;18.80;1.00;;;;;;4977513;28;20043;-63
2023/08/03 12:18:26;;;;;;;17.75;4.53;;;18.90;5.70;;;;;;4984378;28;20492;-63
2023/08/03 12:20:52;;;;;;;11.45;4.00;;;18.90;10.80;;;;;;4977825;28;20057;-63
2023/08/03 12:23:19;;;;;;;15.43;3.90;;;19.10;18.50;;;;;;4990127;28;20068;-63
2023/08/03 12:25:44;;;;;;;14.55;4.47;;;19.10;1.00;;;;;;4990620;28;20079;-62
2023/08/03 12:28:11;;;;;;;9.85;4.13;;;19.10;8.10;;;;;;4978986;28;20421;-64
2023/08/03 12:30:37;;;;;;;12.82;4.13;;;19.50;1.00;;;;;;4984290;28;20045;-62
2023/08/03 12:33:03;;;;;;;14.00;4.22;;;19.20;1.00;;;;;;4983318;28;20053;-62
2023/08/03 12:35:29;;;;;;;14.07;4.38;;;19.40;1.00;;;;;;4985164;28;20035;-62
2023/08/03 12:37:55;;;;;;;13.48;4.47;;;19.80;1.00;;;;;;4973804;28;20078;-61
2023/08/03 12:40:21;;;;;;;15.15;5.03;;;19.00;1.00;;;;;;4990466;28;20058;-63
2023/08/03 12:42:46;;;;;;;17.83;5.57;;;18.90;1.00;;;;;;4976857;28;20053;-63
2023/08/03 12:45:12;;;;;;;14.23;4.47;;;19.20;1.00;;;;;;4987239;28;20564;-62
2023/08/03 12:47:38;;;;;;;12.25;4.53;;;18.80;1.00;;;;;;4990028;28;20038;-63